Impacts METAR Board
IDs:

KCXO - Conroe/Executive Arp, TX, US

Updated at: 1300 UTC 14 Dec 2019
Potential Impact None Slight Moderate High
Time 14/01Z 14/02Z 14/03Z 14/04Z 14/05Z 14/06Z 14/07Z 14/08Z 14/09Z 14/10Z 14/11Z 14/12Z 14/13Z
Temp52 49 49 47 45 43 42 41 40 38 38 37 37
Dewpt50 48 46 45 43 42 41 39 39 37 36 36 36
Altim29.84 29.85 29.86 29.87 29.88 29.87 29.86 29.87 29.87 29.87 29.88 29.89 29.90
VIS10 10 10 10 10 10 7 5 7 10 10 10 10
CIG-- -- -- -- -- -- -- -- -- -- -- -- --
CoverCLRCLRCLRCLRCLRCLRCLRCLRCLRCLRCLRCLRCLR
FltCatVFRVFRVFRVFRVFRVFRVFRMVFRVFRVFRVFRVFRVFR
WX--------------BR----------
WDir33000000000003300
WSpd3 0 0 0 0 0 0 0 0 0 0 3 0
WGst-- -- -- -- -- -- -- -- -- -- -- -- --
Raw hourly METARs
KCXO 140053Z 33003KT 10SM CLR 11/10 A2984 RMK AO2 SLP103 T01110100
KCXO 140153Z 00000KT 10SM CLR 09/09 A2985 RMK AO2 SLP106 T00940089
KCXO 140253Z AUTO 00000KT 10SM CLR 09/08 A2986 RMK AO2 SLP110 T00940078 51013
KCXO 140353Z AUTO 00000KT 10SM CLR 08/07 A2987 RMK AO2 SLP115 T00830072
KCXO 140453Z AUTO 00000KT 10SM CLR 07/06 A2988 RMK AO2 SLP116 T00720061
KCXO 140553Z AUTO 00000KT 10SM CLR 06/06 A2987 RMK AO2 SLP113 T00610056 10144 20061 402220050 50003
KCXO 140653Z AUTO 00000KT 7SM CLR 06/05 A2986 RMK AO2 SLP110 T00560050
KCXO 140753Z AUTO 00000KT 5SM BR CLR 05/04 A2987 RMK AO2 SLP114 T00500039
KCXO 140853Z AUTO 00000KT 7SM CLR 04/04 A2987 RMK AO2 SLP112 T00440039 56001
KCXO 140953Z AUTO 00000KT 10SM CLR 03/03 A2987 RMK AO2 SLP113 T00330028
KCXO 141053Z AUTO 00000KT 10SM CLR 03/02 A2988 RMK AO2 SLP116 T00330022
KCXO 141153Z 33003KT 10SM CLR 03/02 A2989 RMK AO2 SLP120 T00280022 10061 20028 53007
KCXO 141253Z 00000KT 10SM CLR 03/02 A2990 RMK AO2 SLP125 T00280022



Page loaded:  13:43 UTC  |   05:43 AM Pacific  |   06:43 AM Mountain  |   07:43 AM Central  |   08:43 AM Eastern

 

ADVISORIES

FORECASTS

FORECASTS

OBSERVATIONS

USER TOOLS

ABOUT US